| Date | Time | Temp. (oF) | Dew Point (oF) | Rel. Hum. (%) | Press. (in.) | Wind Dir. | Wind Speed (mph) | Hourly Rainfall (in.) |
|
|---|---|---|---|---|---|---|---|---|---|
| 1 | 09/22 | 00:00 | 63 | 59 | 87 | 30.14 | SW | 0 | 0.00 |
| 2 | 09/21 | 23:00 | 64 | 59 | 84 | 30.15 | SW | 1 | 0.00 |
| 3 | 09/21 | 22:00 | 65 | 60 | 84 | 30.14 | SSW | 1 | 0.00 |
| 4 | 09/21 | 21:00 | 69 | 60 | 74 | 30.14 | SSW | 0 | 0.00 |
| 5 | 09/21 | 20:00 | 74 | 58 | 59 | 30.12 | SSW | 0 | 0.00 |
| 6 | 09/21 | 19:00 | 79 | 58 | 50 | 30.10 | SSW | 0 | 0.00 |
| 7 | 09/21 | 18:00 | 81 | 56 | 43 | 30.08 | S | 7 | 0.00 |
| 8 | 09/21 | 17:00 | 84 | 57 | 41 | 30.08 | NW | 3 | 0.00 |
| 9 | 09/21 | 16:00 | 83 | 57 | 42 | 30.10 | NE | 5 | 0.00 |
| 10 | 09/21 | 15:00 | 83 | 57 | 42 | 30.13 | NW | 4 | 0.00 |
| 11 | 09/21 | 14:00 | 82 | 56 | 42 | 30.15 | NNW | 5 | 0.00 |
| 12 | 09/21 | 13:00 | 81 | 57 | 45 | 30.17 | NNW | 6 | 0.00 |
| 13 | 09/21 | 12:00 | 78 | 59 | 53 | 30.19 | NW | 5 | 0.00 |
| 14 | 09/21 | 11:00 | 75 | 58 | 57 | 30.20 | NNW | 4 | 0.00 |
| 15 | 09/21 | 10:00 | 72 | 58 | 62 | 30.20 | NW | 4 | 0.00 |
| 16 | 09/21 | 09:00 | 67 | 60 | 81 | 30.18 | W | 3 | 0.00 |
| 17 | 09/21 | 08:00 | 60 | 58 | 96 | 30.17 | WNW | 1 | 0.00 |
| 18 | 09/21 | 07:00 | 61 | 58 | 92 | 30.17 | W | 0 | 0.00 |
| 19 | 09/21 | 06:00 | 63 | 59 | 89 | 30.14 | WNW | 1 | 0.00 |
| 20 | 09/21 | 05:00 | 65 | 61 | 87 | 30.12 | NNW | 1 | 0.00 |
| 21 | 09/21 | 04:00 | 65 | 61 | 90 | 30.11 | WNW | 1 | 0.00 |
| 22 | 09/21 | 03:00 | 66 | 63 | 91 | 30.12 | NNW | 3 | 0.00 |
| 23 | 09/21 | 02:00 | 67 | 63 | 89 | 30.11 | WNW | 1 | 0.00 |
| 24 | 09/21 | 01:00 | 68 | 64 | 88 | 30.11 | W | 1 | 0.00 |